Terminal Aerodrome Forecast
Issued by NWS Springfield, MO

Home | Current Version | Previous Version | Text Only | Print | Product List | Glossary On
Versions: 1 2 3 4 5 6 7 8 9 10 11 12 13 14 15 16 17 18 19 20
000
FTUS43 KSGF 240500
TAFSGF
TAF
KSGF 240520Z 2406/2506 20004KT 2SM BR FEW003 SCT015
      TEMPO 2406/2410 1/2SM FG
     FM241000 VRB03KT 1SM BR FEW003 SCT012
      TEMPO 2410/2413 1/4SM FG
     FM241400 21005KT 3SM BR SCT010
     FM241600 21007KT P6SM SKC=

USA.gov is the U.S. government's official web portal to all federal, state and local government web resources and services.